This is the latest recevied weather packets stored in our database for station/object E7HQ-1. If no packets are shown the sender has not sent any weather packets the latest 1 day(s).
| Time | Temp. | Humidity | Pressure | Rain* | Wind** | Luminosity | Snow |
|---|---|---|---|---|---|---|---|
| 1778087927 | 16.67° C | 47% | 1023.7 hPa | - | - | - | - |
| 1778085171 | 17.78° C | 44% | 1023.6 hPa | - | - | - | - |
| 1778077747 | 20.56° C | 34% | 1023.2 hPa | - | - | - | - |
| 1778070540 | 22.78° C | 32% | 1023.8 hPa | - | - | - | - |
| 1778064242 | 22.78° C | 36% | 1024.6 hPa | - | - | - | - |
| 1778060641 | 22.22° C | 39% | 1024.8 hPa | - | - | - | - |
| 1778059741 | 21.67° C | 40% | 1024.9 hPa | - | - | - | - |
| 1778057040 | 20° C | 43% | 1025.2 hPa | - | - | - | - |
| 1778056140 | 21.11° C | 41% | 1025.1 hPa | - | - | - | - |
| 1778053439 | 18.89° C | 42% | 1025.1 hPa | - | - | - | - |
| 1778052539 | 18.89° C | 42% | 1025.2 hPa | - | - | - | - |
| 1778051639 | 17.78° C | 45% | 1025.4 hPa | - | - | - | - |
| 1778049838 | 17.22° C | 46% | 1025.5 hPa | - | - | - | - |
| 1778048938 | 16.11° C | 47% | 1025.4 hPa | - | - | - | - |
| 1778048038 | 15.56° C | 49% | 1025.5 hPa | - | - | - | - |
| 1778047137 | 13.89° C | 50% | 1025.6 hPa | - | - | - | - |
| 1778042642 | 11.67° C | 52% | 1025.7 hPa | - | - | - | - |
| 1778039041 | 11.67° C | 51% | 1025.7 hPa | - | - | - | - |
| 1778038140 | 12.22° C | 51% | 1025.6 hPa | - | - | - | - |
| 1778037240 | 12.22° C | 51% | 1025.6 hPa | - | - | - | - |
| 1778036341 | 12.22° C | 51% | 1025.4 hPa | - | - | - | - |
| 1778035440 | 12.78° C | 53% | 1025.5 hPa | - | - | - | - |
| 1778034540 | 12.22° C | 51% | 1025.5 hPa | - | - | - | - |
| 1778033639 | 12.22° C | 52% | 1025.5 hPa | - | - | - | - |
| 1778032739 | 11.67° C | 50% | 1025.7 hPa | - | - | - | - |
* Rain since midnight (hover to see other rain measurements)
** Current wind speed in m/s (hover to see current wind gust speed)